createdAt,value
2023-02-09T00:01:20.141Z,40.60
2023-02-09T00:04:05.044Z,39.95
2023-02-09T00:06:50.450Z,39.95
2023-02-09T00:09:35.642Z,38.50
2023-02-09T00:12:47.830Z,39.75
2023-02-09T00:15:33.002Z,36.70
2023-02-09T00:18:19.477Z,35.63
2023-02-09T00:21:11.184Z,36.45
2023-02-09T00:23:56.164Z,33.92
2023-02-09T00:26:41.795Z,37.25
2023-02-09T00:29:27.607Z,37.83
2023-02-09T00:32:12.537Z,39.92
2023-02-09T00:34:57.509Z,37.17
2023-02-09T00:37:42.574Z,39.45
2023-02-09T00:40:27.912Z,36.70
2023-02-09T00:43:13.159Z,33.63
2023-02-09T00:45:58.409Z,40.35
2023-02-09T00:48:43.600Z,40.53
2023-02-09T00:51:28.618Z,36.03
2023-02-09T00:54:14.298Z,32.85
2023-02-09T00:57:05.140Z,39.97
2023-02-09T00:59:50.528Z,34.83
2023-02-09T01:02:35.680Z,31.88
2023-02-09T01:05:21.056Z,37.72
2023-02-09T01:08:06.331Z,42.33
2023-02-09T01:10:51.668Z,39.95
2023-02-09T01:13:37.123Z,34.20
2023-02-09T01:16:23.297Z,38.88
2023-02-09T01:19:11.528Z,40.47
2023-02-09T01:21:57.112Z,38.42
2023-02-09T01:24:42.122Z,39.45
2023-02-09T01:27:27.226Z,38.88
2023-02-09T01:30:13.202Z,39.97
2023-02-09T01:32:58.687Z,44.33
2023-02-09T01:35:43.670Z,36.97
2023-02-09T01:38:28.711Z,36.90
2023-02-09T01:41:14.205Z,41.13
2023-02-09T01:44:03.851Z,43.30
2023-02-09T01:49:33.975Z,37.45
2023-02-09T01:52:23.499Z,40.92
2023-02-09T01:55:15.328Z,39.40
2023-02-09T01:58:13.958Z,45.13
2023-02-09T02:01:00.270Z,37.77
2023-02-09T02:03:46.196Z,33.72
2023-02-09T02:06:31.522Z,41.03
2023-02-09T02:09:18.119Z,36.05
2023-02-09T02:16:05.896Z,37.25
2023-02-09T02:19:02.904Z,36.88
2023-02-09T02:22:13.109Z,36.78
2023-02-09T02:28:16.706Z,39.47
2023-02-09T02:31:12.995Z,45.30
2023-02-09T02:34:10.203Z,37.00
2023-02-09T02:37:28.333Z,38.58
2023-02-09T02:40:21.845Z,36.45
2023-02-09T02:43:36.482Z,39.55
2023-02-09T02:46:39.656Z,38.72
2023-02-09T02:49:42.487Z,34.80
2023-02-09T02:52:27.692Z,35.03
2023-02-09T02:55:16.829Z,37.65
2023-02-09T02:58:07.735Z,38.17
2023-02-09T03:00:56.608Z,36.30
2023-02-09T03:03:43.842Z,34.50
2023-02-09T03:06:35.128Z,37.00
2023-02-09T03:09:20.324Z,32.92
2023-02-09T03:12:24.014Z,34.38
2023-02-09T03:15:28.969Z,35.78
2023-02-09T03:18:33.464Z,31.33
2023-02-09T03:21:43.553Z,32.70
2023-02-09T03:25:02.888Z,35.03
2023-02-09T03:27:59.092Z,36.40
2023-02-09T03:30:49.733Z,36.95
2023-02-09T03:33:38.705Z,37.88
2023-02-09T03:36:25.803Z,41.63
2023-02-09T03:39:10.699Z,36.70
2023-02-09T03:41:56.084Z,38.75
2023-02-09T03:44:41.192Z,40.63
2023-02-09T03:47:26.401Z,44.38
2023-02-09T03:50:11.665Z,36.72
2023-02-09T03:52:56.803Z,36.80
2023-02-09T03:55:41.885Z,33.72
2023-02-09T03:58:27.380Z,33.85
2023-02-09T04:01:12.686Z,33.63
2023-02-09T04:03:58.859Z,34.63
2023-02-09T04:06:43.964Z,37.17
2023-02-09T04:09:29.515Z,32.83
2023-02-09T04:12:14.712Z,35.80
2023-02-09T04:14:59.927Z,34.78
2023-02-09T04:17:45.021Z,36.47
2023-02-09T04:20:30.249Z,38.58
2023-02-09T04:23:15.664Z,35.53
2023-02-09T04:26:00.746Z,35.58
2023-02-09T04:28:46.019Z,36.58
2023-02-09T04:31:31.692Z,39.95
2023-02-09T04:34:17.128Z,34.35
2023-02-09T04:37:02.320Z,33.75
2023-02-09T04:39:47.666Z,38.72
2023-02-09T04:42:32.959Z,34.90
2023-02-09T04:45:18.070Z,37.70
2023-02-09T04:48:03.488Z,37.50
2023-02-09T04:50:49.235Z,39.40
2023-02-09T04:53:34.267Z,36.60
2023-02-09T04:56:19.609Z,38.97
2023-02-09T04:59:23.596Z,33.97
2023-02-09T05:02:08.983Z,35.97
2023-02-09T05:04:54.299Z,37.88
2023-02-09T05:07:39.659Z,32.35
2023-02-09T05:10:25.005Z,35.80
2023-02-09T05:13:09.777Z,36.97
2023-02-09T05:15:55.412Z,32.72
2023-02-09T05:18:40.613Z,38.00
2023-02-09T05:21:25.629Z,36.53
2023-02-09T05:24:10.755Z,40.67
2023-02-09T05:26:55.967Z,33.38
2023-02-09T05:29:41.256Z,32.88
2023-02-09T05:32:26.292Z,33.30
2023-02-09T05:35:11.836Z,36.30
2023-02-09T05:37:56.899Z,35.47
2023-02-09T05:40:44.216Z,36.85
2023-02-09T05:43:30.545Z,37.03
2023-02-09T05:46:15.860Z,37.95
2023-02-09T05:49:01.099Z,36.20
2023-02-09T05:51:46.265Z,35.67
2023-02-09T05:54:31.640Z,33.70
2023-02-09T05:57:17.850Z,37.42
2023-02-09T06:00:05.187Z,36.53
2023-02-09T06:02:50.070Z,37.50
2023-02-09T06:05:35.152Z,33.72
2023-02-09T06:08:20.375Z,33.00
2023-02-09T06:11:06.136Z,34.80
2023-02-09T06:13:51.277Z,33.65
2023-02-09T06:16:36.946Z,36.42
2023-02-09T06:19:22.090Z,39.85
2023-02-09T06:22:07.381Z,37.03
2023-02-09T06:24:52.835Z,35.15
2023-02-09T06:27:38.164Z,39.80
2023-02-09T06:30:23.326Z,37.33
2023-02-09T06:33:08.188Z,43.58
2023-02-09T06:35:53.236Z,38.85
2023-02-09T06:38:38.997Z,44.15
2023-02-09T06:41:24.245Z,33.10
2023-02-09T06:44:09.718Z,35.22
2023-02-09T06:46:54.924Z,33.78
2023-02-09T06:49:40.000Z,38.00
2023-02-09T06:52:25.003Z,34.13
2023-02-09T06:55:10.424Z,38.42
2023-02-09T06:57:56.061Z,39.88
2023-02-09T07:00:41.261Z,34.15
2023-02-09T07:03:26.570Z,34.85
2023-02-09T07:06:17.782Z,36.13
2023-02-09T07:09:03.331Z,34.78
2023-02-09T07:11:48.544Z,38.38
2023-02-09T07:14:33.566Z,36.42
2023-02-09T07:17:18.656Z,40.63
2023-02-09T07:20:04.887Z,40.13
2023-02-09T07:22:49.722Z,34.67
2023-02-09T07:25:34.799Z,36.72
2023-02-09T07:28:20.699Z,41.20
2023-02-09T07:31:09.593Z,38.80
2023-02-09T07:33:55.740Z,42.55
2023-02-09T07:36:40.691Z,42.03
2023-02-09T07:39:26.449Z,44.85
2023-02-09T07:42:11.807Z,39.15
2023-02-09T07:44:57.065Z,45.70
2023-02-09T07:47:42.400Z,38.85
2023-02-09T07:50:27.661Z,39.47
2023-02-09T07:53:12.822Z,39.90
2023-02-09T07:55:57.787Z,48.97
2023-02-09T07:58:43.533Z,44.03
2023-02-09T08:01:28.431Z,43.53
2023-02-09T08:04:13.412Z,42.55
2023-02-09T08:06:58.524Z,41.72
2023-02-09T08:09:46.442Z,40.50
2023-02-09T08:12:50.733Z,52.92
2023-02-09T08:15:45.330Z,46.97
2023-02-09T08:18:42.744Z,48.83
2023-02-09T08:21:31.500Z,53.30
2023-02-09T08:24:20.467Z,53.70
2023-02-09T08:27:05.857Z,50.17
2023-02-09T08:29:51.886Z,47.08
2023-02-09T08:32:37.049Z,53.72
2023-02-09T08:35:22.503Z,50.78
2023-02-09T08:38:07.872Z,57.55
2023-02-09T08:40:53.119Z,52.28
2023-02-09T08:43:38.218Z,65.85
2023-02-09T08:46:23.560Z,111.10
2023-02-09T08:49:08.764Z,56.58
2023-02-09T08:58:38.134Z,51.60
2023-02-09T09:01:55.845Z,45.10
2023-02-09T09:05:06.800Z,48.85
2023-02-09T09:08:02.369Z,49.88
2023-02-09T09:11:30.651Z,49.17
2023-02-09T09:14:58.681Z,53.10
2023-02-09T09:18:08.341Z,48.85
2023-02-09T09:25:08.395Z,44.28
2023-02-09T09:27:27.215Z,51.05
2023-02-09T09:30:13.261Z,57.13
2023-02-09T09:33:01.537Z,58.50
2023-02-09T09:36:12.293Z,51.38
2023-02-09T09:38:59.976Z,128.15
2023-02-09T09:42:08.208Z,104.95
2023-02-09T09:44:56.956Z,58.70
2023-02-09T09:47:44.279Z,60.85
2023-02-09T09:50:48.351Z,72.78
2023-02-09T09:53:38.872Z,64.57
2023-02-09T09:56:30.181Z,56.80
2023-02-09T09:59:43.694Z,61.33
2023-02-09T10:03:00.116Z,57.95
2023-02-09T10:05:57.587Z,54.45
2023-02-09T10:08:50.128Z,56.00
2023-02-09T10:11:47.041Z,56.45
2023-02-09T10:14:32.497Z,57.85
2023-02-09T10:17:18.098Z,48.92
2023-02-09T10:20:08.047Z,61.80
2023-02-09T10:22:55.310Z,45.38
2023-02-09T10:26:03.903Z,51.28
2023-02-09T10:28:54.936Z,43.92
2023-02-09T10:31:45.143Z,50.30
2023-02-09T10:35:06.055Z,49.92
2023-02-09T10:38:06.807Z,53.55
2023-02-09T10:40:52.524Z,45.45
2023-02-09T10:43:41.192Z,48.67
2023-02-09T10:46:29.635Z,46.90
2023-02-09T10:49:36.070Z,51.47
2023-02-09T10:52:28.639Z,49.78
2023-02-09T10:55:25.408Z,50.25
2023-02-09T10:58:10.634Z,51.05
2023-02-09T11:01:14.200Z,46.58
2023-02-09T11:04:05.424Z,49.95
2023-02-09T11:07:09.161Z,46.92
2023-02-09T11:09:57.112Z,54.55
2023-02-09T11:12:43.674Z,47.65
2023-02-09T11:15:39.540Z,51.03
2023-02-09T11:18:33.785Z,40.97
2023-02-09T11:21:33.791Z,40.58
2023-02-09T11:27:24.840Z,41.45
2023-02-09T11:30:25.360Z,40.58
2023-02-09T11:33:12.383Z,40.38
2023-02-09T11:36:33.693Z,44.25
2023-02-09T11:39:34.559Z,43.42
2023-02-09T11:42:44.939Z,37.03
2023-02-09T11:45:43.438Z,37.30
2023-02-09T11:48:40.526Z,35.40
2023-02-09T11:51:26.915Z,33.10
2023-02-09T11:54:25.022Z,37.17
2023-02-09T11:57:26.106Z,32.75
2023-02-09T12:00:21.006Z,32.00
2023-02-09T12:03:14.039Z,33.42
2023-02-09T12:06:00.199Z,35.25
2023-02-09T12:09:20.085Z,31.55
2023-02-09T12:12:14.599Z,32.28
2023-02-09T12:15:18.127Z,31.30
2023-02-09T12:18:15.716Z,31.40
2023-02-09T12:21:06.819Z,28.20
2023-02-09T12:23:52.111Z,28.30
2023-02-09T12:26:44.672Z,30.00
2023-02-09T12:29:35.416Z,27.73
2023-02-09T12:32:31.863Z,29.60
2023-02-09T12:35:37.477Z,33.85
2023-02-09T12:38:22.963Z,27.40
2023-02-09T12:41:09.237Z,24.30
2023-02-09T12:44:11.957Z,27.45
2023-02-09T12:46:58.175Z,30.42
2023-02-09T12:49:45.564Z,24.48
2023-02-09T12:52:31.105Z,23.85
2023-02-09T12:55:22.534Z,31.15
2023-02-09T12:58:36.248Z,32.78
2023-02-09T13:01:21.763Z,26.80
2023-02-09T13:04:13.116Z,30.88
2023-02-09T13:07:00.696Z,28.73
2023-02-09T13:09:51.088Z,29.27
2023-02-09T13:12:43.540Z,26.90
2023-02-09T13:15:54.722Z,34.78
2023-02-09T13:19:03.161Z,24.00
2023-02-09T13:22:02.058Z,22.50
2023-02-09T13:25:20.550Z,23.17
2023-02-09T13:28:20.738Z,26.98
2023-02-09T13:31:32.291Z,25.77
2023-02-09T13:34:40.538Z,28.65
2023-02-09T13:37:47.933Z,27.63
2023-02-09T13:40:44.871Z,25.08
2023-02-09T13:43:42.403Z,25.55
2023-02-09T13:46:44.731Z,23.95
2023-02-09T13:49:38.088Z,26.05
2023-02-09T13:52:35.714Z,25.30
2023-02-09T13:55:26.155Z,24.38
2023-02-09T13:58:21.220Z,28.03
2023-02-09T14:01:18.382Z,30.42
2023-02-09T14:04:30.527Z,26.77
2023-02-09T14:07:18.549Z,22.92
2023-02-09T14:10:19.302Z,26.10
2023-02-09T14:13:16.559Z,31.25
2023-02-09T14:16:20.690Z,25.35
2023-02-09T14:19:46.826Z,23.10
2023-02-09T14:22:37.519Z,34.40
2023-02-09T14:26:13.521Z,23.13
2023-02-09T14:30:08.158Z,24.77
2023-02-09T14:33:20.971Z,30.52
2023-02-09T14:36:28.990Z,30.45
2023-02-09T14:39:28.989Z,30.05
2023-02-09T14:42:39.351Z,28.95
2023-02-09T14:45:46.632Z,28.58
2023-02-09T14:48:36.571Z,30.83
2023-02-09T14:51:38.322Z,27.40
2023-02-09T15:02:32.473Z,27.50
2023-02-09T15:05:38.634Z,26.73
2023-02-09T15:08:47.975Z,26.20
2023-02-09T15:12:05.663Z,22.20
2023-02-09T15:16:18.514Z,29.55
2023-02-09T15:18:57.017Z,21.30
2023-02-09T15:22:05.310Z,25.10
2023-02-09T15:24:56.007Z,22.88
2023-02-09T15:28:02.366Z,24.73
2023-02-09T15:30:54.815Z,25.45
2023-02-09T15:33:44.424Z,27.10
2023-02-09T15:36:35.435Z,27.60
2023-02-09T15:39:23.842Z,26.40
2023-02-09T15:42:36.247Z,27.83
2023-02-09T15:45:42.662Z,25.75
2023-02-09T15:48:27.890Z,24.17
2023-02-09T15:51:14.322Z,24.50
2023-02-09T15:54:02.107Z,24.65
2023-02-09T15:56:48.049Z,21.45
2023-02-09T15:59:36.040Z,28.00
2023-02-09T16:02:22.424Z,26.73
2023-02-09T16:05:08.458Z,22.63
2023-02-09T16:07:58.859Z,27.13
2023-02-09T16:10:52.382Z,22.65
2023-02-09T16:13:45.087Z,30.13
2023-02-09T16:16:38.897Z,29.08
2023-02-09T16:19:26.274Z,28.13
2023-02-09T16:22:25.393Z,26.67
2023-02-09T16:25:33.586Z,29.15
2023-02-09T16:28:27.789Z,22.38
2023-02-09T16:31:16.659Z,25.63
2023-02-09T16:34:15.411Z,25.42
2023-02-09T16:37:01.287Z,25.73
2023-02-09T16:39:59.818Z,25.48
2023-02-09T16:42:48.671Z,22.75
2023-02-09T16:45:48.540Z,24.43
2023-02-09T16:49:21.338Z,29.23
2023-02-09T16:59:34.045Z,20.90
2023-02-09T17:02:30.692Z,23.83
2023-02-09T17:06:27.222Z,26.77
2023-02-09T17:25:57.166Z,33.00
2023-02-09T17:29:16.277Z,31.52
2023-02-09T17:32:35.453Z,29.90
2023-02-09T17:35:52.873Z,24.27
2023-02-09T17:38:39.482Z,28.77
2023-02-09T17:41:49.255Z,30.15
2023-02-09T17:44:46.465Z,28.58
2023-02-09T17:47:40.811Z,29.88
2023-02-09T17:51:25.331Z,26.50
2023-02-09T17:54:33.508Z,27.37
2023-02-09T18:05:55.982Z,34.95
2023-02-09T18:08:41.261Z,39.25
2023-02-09T18:11:56.867Z,37.60
2023-02-09T18:14:41.772Z,40.03
2023-02-09T18:17:26.851Z,37.40
2023-02-09T18:20:33.195Z,38.13
2023-02-09T18:23:18.301Z,49.45
2023-02-09T18:26:03.604Z,45.67
2023-02-09T18:28:50.230Z,47.40
2023-02-09T18:31:36.366Z,46.20
2023-02-09T18:34:22.619Z,48.83
2023-02-09T18:37:07.904Z,53.58
2023-02-09T18:39:52.911Z,53.53
2023-02-09T18:42:38.048Z,50.83
2023-02-09T18:45:23.114Z,49.38
2023-02-09T18:48:08.378Z,41.63
2023-02-09T18:50:53.750Z,43.17
2023-02-09T18:53:39.943Z,43.92
2023-02-09T18:56:26.834Z,39.20
2023-02-09T18:59:11.862Z,39.15
2023-02-09T19:01:57.648Z,38.25
2023-02-09T19:04:43.831Z,40.92
2023-02-09T19:07:30.398Z,40.15
2023-02-09T19:10:19.348Z,42.85
2023-02-09T19:13:04.827Z,51.72
2023-02-09T19:15:50.180Z,54.22
2023-02-09T19:18:35.733Z,53.30
2023-02-09T19:21:21.045Z,57.28
2023-02-09T19:24:06.419Z,50.15
2023-02-09T19:26:51.651Z,44.95
2023-02-09T19:29:39.031Z,43.92
2023-02-09T19:32:26.352Z,40.08
2023-02-09T19:35:11.631Z,40.47
2023-02-09T19:37:57.735Z,40.00
2023-02-09T19:40:43.272Z,70.50
2023-02-09T19:43:28.284Z,62.60
2023-02-09T19:46:13.593Z,44.13
2023-02-09T19:48:59.156Z,46.00
2023-02-09T19:51:44.053Z,42.28
2023-02-09T19:54:29.334Z,43.13
2023-02-09T19:57:14.154Z,38.03
2023-02-09T19:59:59.112Z,40.00
2023-02-09T20:02:45.619Z,41.33
2023-02-09T20:05:31.020Z,42.70
2023-02-09T20:08:18.644Z,41.50
2023-02-09T20:11:12.181Z,40.88
2023-02-09T20:13:57.105Z,48.28
2023-02-09T20:16:42.701Z,45.65
2023-02-09T20:19:27.909Z,51.15
2023-02-09T20:22:13.109Z,45.30
2023-02-09T20:24:58.619Z,49.78
2023-02-09T20:27:44.653Z,40.70
2023-02-09T20:30:30.104Z,46.50
2023-02-09T20:33:15.655Z,39.75
2023-02-09T20:36:05.418Z,39.83
2023-02-09T20:41:35.695Z,38.50
2023-02-09T20:44:39.657Z,41.05
2023-02-09T20:47:26.096Z,35.83
2023-02-09T20:50:12.342Z,34.97
2023-02-09T20:52:58.513Z,30.58
2023-02-09T20:55:43.945Z,35.13
2023-02-09T20:58:29.057Z,34.00
2023-02-09T21:01:14.412Z,34.67
2023-02-09T21:04:00.305Z,33.40
2023-02-09T21:06:45.426Z,33.10
2023-02-09T21:09:30.763Z,38.25
2023-02-09T21:12:15.932Z,35.70
2023-02-09T21:15:01.093Z,38.28
2023-02-09T21:17:51.403Z,36.00
2023-02-09T21:23:21.913Z,33.55
2023-02-09T21:26:09.230Z,34.22
2023-02-09T21:28:56.812Z,34.65
2023-02-09T21:31:42.371Z,37.15
2023-02-09T21:34:27.523Z,34.83
2023-02-09T21:37:14.053Z,35.75
2023-02-09T21:40:02.987Z,30.98
2023-02-09T21:42:49.055Z,33.65
2023-02-09T21:45:33.937Z,36.28
2023-02-09T21:48:19.151Z,33.72
2023-02-09T21:51:06.697Z,30.98
2023-02-09T21:53:52.433Z,34.80
2023-02-09T21:56:37.496Z,33.78
2023-02-09T21:59:22.726Z,37.13
2023-02-09T22:02:11.055Z,36.88
2023-02-09T22:04:56.441Z,36.40
2023-02-09T22:07:41.696Z,32.15
2023-02-09T22:10:27.025Z,33.00
2023-02-09T22:13:12.241Z,38.15
2023-02-09T22:15:57.968Z,34.42
2023-02-09T22:18:42.961Z,33.15
2023-02-09T22:21:27.955Z,34.40
2023-02-09T22:24:16.383Z,35.92
2023-02-09T22:27:02.791Z,32.65
2023-02-09T22:29:48.163Z,29.13
2023-02-09T22:32:33.441Z,30.13
2023-02-09T22:35:18.848Z,35.92
2023-02-09T22:38:05.277Z,34.05
2023-02-09T22:40:50.394Z,36.65
2023-02-09T22:43:35.340Z,33.00
2023-02-09T22:46:23.022Z,34.45
2023-02-09T22:49:20.819Z,30.52
2023-02-09T22:52:06.123Z,29.33
2023-02-09T22:54:51.756Z,30.02
2023-02-09T22:57:36.805Z,30.30
2023-02-09T23:00:21.894Z,31.35
2023-02-09T23:03:07.169Z,32.03
2023-02-09T23:05:52.127Z,29.85
2023-02-09T23:08:37.022Z,38.90
2023-02-09T23:11:22.899Z,32.15
2023-02-09T23:14:10.201Z,36.45
2023-02-09T23:16:56.353Z,34.08
2023-02-09T23:19:41.572Z,35.28
2023-02-09T23:22:26.796Z,34.60
2023-02-09T23:25:11.854Z,31.30
2023-02-09T23:27:56.782Z,33.83
2023-02-09T23:30:42.074Z,31.42
2023-02-09T23:33:27.253Z,32.65
2023-02-09T23:36:16.371Z,29.73
2023-02-09T23:39:05.099Z,31.20
2023-02-09T23:41:50.012Z,32.53
2023-02-09T23:44:34.979Z,33.75
2023-02-09T23:47:19.963Z,30.10
2023-02-09T23:50:05.065Z,29.83
2023-02-09T23:52:50.213Z,29.27
2023-02-09T23:55:35.470Z,36.80
2023-02-09T23:58:21.301Z,33.45
